Time;durP1;ratioP1;P1;durP2;ratioP2;P2;SDS_P1;SDS_P2;PMS_P1;PMS_P2;Temp;Humidity;BMP_temperature;BMP_pressure;BME280_temperature;BME280_humidity;BME280_pressure;Samples;Min_cycle;Max_cycle;Signal;HPM_P1;HPM_P2
2023/06/02 00:00:09;;;;;;;14.60;2.25;;;;;;;11.69;100.00;102023.69;5072260;28;20048;-52
2023/06/02 00:02:38;;;;;;;11.02;2.30;;;;;;;11.75;100.00;102026.88;5072295;28;20045;-50
2023/06/02 00:05:07;;;;;;;11.32;2.42;;;;;;;11.74;100.00;102019.88;5072087;28;20479;-52
2023/06/02 00:07:37;;;;;;;14.30;2.80;;;;;;;11.65;100.00;102020.34;5074041;28;20094;-51
2023/06/02 00:10:06;;;;;;;12.07;2.45;;;;;;;11.59;100.00;102023.28;5057234;28;20090;-52
2023/06/02 00:12:34;;;;;;;14.75;2.83;;;;;;;11.52;100.00;102024.53;5070520;28;20051;-50
2023/06/02 00:15:04;;;;;;;12.57;2.22;;;;;;;11.58;100.00;102019.81;5072582;28;20052;-52
2023/06/02 00:17:34;;;;;;;11.85;2.80;;;;;;;11.56;100.00;102020.81;5075114;28;20072;-52
2023/06/02 00:20:05;;;;;;;15.23;2.63;;;;;;;11.64;100.00;102016.00;5074601;28;20052;-47
2023/06/02 00:22:37;;;;;;;10.07;2.58;;;;;;;11.61;100.00;102026.69;5072303;28;20059;-51
2023/06/02 00:25:06;;;;;;;10.05;2.80;;;;;;;11.59;100.00;102018.88;5071988;28;20135;-47
2023/06/02 00:27:37;;;;;;;10.68;2.78;;;;;;;11.70;100.00;102013.06;5073089;28;20041;-53
2023/06/02 00:30:08;;;;;;;10.00;2.63;;;;;;;11.73;100.00;102017.31;5071595;28;20052;-59
2023/06/02 00:32:37;;;;;;;13.65;2.47;;;;;;;11.72;100.00;102013.81;5072922;28;20144;-59
2023/06/02 00:35:06;;;;;;;11.32;2.70;;;;;;;11.66;100.00;102025.53;5074113;28;20120;-59
2023/06/02 00:37:34;;;;;;;11.85;2.70;;;;;;;11.54;100.00;102020.88;5072060;28;20151;-58
2023/06/02 00:40:03;;;;;;;9.48;2.75;;;;;;;11.48;100.00;102019.41;5071851;28;20040;-59
2023/06/02 00:42:32;;;;;;;11.77;2.70;;;;;;;11.46;100.00;102017.78;5054744;28;20076;-60
2023/06/02 00:45:00;;;;;;;12.68;2.97;;;;;;;11.57;100.00;102010.19;5070575;28;20055;-58
2023/06/02 00:47:30;;;;;;;7.20;2.30;;;;;;;11.56;100.00;102010.25;5071159;28;20559;-60
2023/06/02 00:49:58;;;;;;;13.00;3.13;;;;;;;11.58;100.00;102004.00;5073488;28;20045;-59
2023/06/02 00:52:27;;;;;;;12.32;2.80;;;;;;;11.63;100.00;102003.75;5071347;28;20041;-58
2023/06/02 00:54:57;;;;;;;14.70;3.45;;;;;;;11.60;100.00;102007.41;5072016;28;20041;-59
2023/06/02 00:57:28;;;;;;;10.25;2.40;;;;;;;11.56;100.00;102005.00;5073844;28;20051;-60
2023/06/02 00:59:57;;;;;;;13.10;2.75;;;;;;;11.45;100.00;102014.31;5073861;28;20499;-59
2023/06/02 01:02:26;;;;;;;14.18;3.45;;;;;;;11.40;100.00;102013.69;5071334;28;20046;-59
2023/06/02 01:04:57;;;;;;;16.38;3.25;;;;;;;11.42;100.00;102010.97;5070219;28;20040;-52
2023/06/02 01:07:27;;;;;;;13.43;2.58;;;;;;;11.49;100.00;102018.50;5070983;28;20056;-52
2023/06/02 01:09:57;;;;;;;12.88;3.08;;;;;;;11.33;100.00;102013.13;5070474;28;20067;-48
2023/06/02 01:12:26;;;;;;;16.48;3.13;;;;;;;11.29;100.00;102008.09;5051161;28;20396;-50
2023/06/02 01:14:55;;;;;;;14.88;2.67;;;;;;;11.32;100.00;102016.69;5070795;28;20060;-51
2023/06/02 01:17:30;;;;;;;14.35;2.58;;;;;;;11.32;100.00;102015.84;5071253;28;20106;-50
2023/06/02 01:20:06;;;;;;;15.05;2.78;;;;;;;11.24;100.00;102007.47;5072014;28;20056;-48
2023/06/02 01:22:43;;;;;;;12.95;2.70;;;;;;;11.31;100.00;102011.50;5071013;28;20048;-49
2023/06/02 01:25:23;;;;;;;11.52;2.47;;;;;;;11.31;100.00;102009.72;5070257;28;20147;-51
2023/06/02 01:27:52;;;;;;;12.27;2.30;;;;;;;11.30;100.00;102015.94;5073381;28;20539;-49
2023/06/02 01:30:20;;;;;;;12.98;2.80;;;;;;;11.28;100.00;102014.28;5073148;28;20098;-59
2023/06/02 01:32:56;;;;;;;14.50;3.10;;;;;;;11.30;100.00;102017.69;5073172;28;20060;-59
2023/06/02 01:35:28;;;;;;;10.07;2.75;;;;;;;11.25;100.00;102012.66;5073162;28;20040;-59
2023/06/02 01:37:59;;;;;;;11.88;3.22;;;;;;;11.22;100.00;102017.22;5072973;28;20075;-60
2023/06/02 01:40:30;;;;;;;10.45;3.00;;;;;;;11.21;100.00;102012.88;5069826;28;21011;-59
2023/06/02 01:43:00;;;;;;;14.27;3.17;;;;;;;11.22;100.00;102020.72;5070323;28;20040;-59
2023/06/02 01:45:30;;;;;;;13.57;3.33;;;;;;;11.21;100.00;102013.75;5072833;28;20048;-58
2023/06/02 01:48:07;;;;;;;10.52;3.10;;;;;;;11.27;100.00;102023.97;5072495;28;20064;-59
2023/06/02 01:50:37;;;;;;;10.48;3.13;;;;;;;11.11;100.00;102015.97;5072437;28;20739;-59
2023/06/02 01:53:06;;;;;;;10.27;3.10;;;;;;;11.04;100.00;102013.72;5071915;28;20055;-52
2023/06/02 01:55:36;;;;;;;9.98;3.00;;;;;;;11.00;100.00;102023.53;5069074;28;20561;-47
2023/06/02 01:58:05;;;;;;;10.48;2.47;;;;;;;11.01;100.00;102021.75;5069482;28;20722;-52
2023/06/02 02:00:33;;;;;;;13.32;3.25;;;;;;;10.99;100.00;102027.94;5070252;28;20053;-50
2023/06/02 02:03:02;;;;;;;13.02;3.50;;;;;;;10.95;100.00;102026.38;5072541;28;20044;-50
2023/06/02 02:05:33;;;;;;;8.93;2.97;;;;;;;10.93;100.00;102025.59;5073077;28;20575;-53
2023/06/02 02:08:03;;;;;;;11.00;2.78;;;;;;;11.02;100.00;102010.31;5071502;28;20127;-51
2023/06/02 02:10:33;;;;;;;11.27;2.70;;;;;;;10.94;100.00;102019.41;5069886;28;20044;-50
2023/06/02 02:13:03;;;;;;;10.40;2.72;;;;;;;11.04;100.00;102014.56;5068743;28;20036;-53
2023/06/02 02:15:31;;;;;;;11.73;2.80;;;;;;;11.03;100.00;102022.53;5053835;28;20519;-47
2023/06/02 02:18:00;;;;;;;11.25;3.03;;;;;;;10.94;100.00;102029.94;5072730;28;20048;-49
2023/06/02 02:20:28;;;;;;;9.57;2.80;;;;;;;10.99;100.00;102022.69;5072421;28;20075;-49
2023/06/02 02:22:56;;;;;;;10.15;2.53;;;;;;;11.05;100.00;102029.44;5072502;28;20101;-49
2023/06/02 02:25:24;;;;;;;12.48;3.15;;;;;;;11.12;100.00;102028.19;5072385;28;20437;-50
2023/06/02 02:27:53;;;;;;;11.23;2.65;;;;;;;11.05;100.00;102031.22;5072515;28;20396;-53
2023/06/02 02:30:22;;;;;;;12.40;2.67;;;;;;;10.91;100.00;102026.63;5068945;28;20058;-52
2023/06/02 02:32:51;;;;;;;12.57;2.65;;;;;;;10.99;100.00;102020.06;5051739;28;20063;-59
2023/06/02 02:35:20;;;;;;;8.63;2.60;;;;;;;10.93;100.00;102022.97;5070652;28;20052;-59
2023/06/02 02:37:48;;;;;;;11.05;2.65;;;;;;;10.99;100.00;102016.56;5054154;28;20473;-59
2023/06/02 02:40:16;;;;;;;11.15;2.60;;;;;;;10.84;100.00;102020.78;5072040;28;20094;-59
2023/06/02 02:42:46;;;;;;;11.93;3.15;;;;;;;10.89;100.00;102023.19;5067759;28;20396;-58
2023/06/02 02:45:15;;;;;;;10.85;2.92;;;;;;;10.81;100.00;102020.91;5068715;28;20056;-58
2023/06/02 02:47:44;;;;;;;9.90;2.53;;;;;;;10.84;100.00;102020.78;5069706;28;20119;-59
2023/06/02 02:50:12;;;;;;;9.60;2.70;;;;;;;10.78;100.00;102023.69;5068446;28;20051;-59
2023/06/02 02:52:41;;;;;;;12.38;3.00;;;;;;;10.82;100.00;102023.50;5069255;28;20131;-60
2023/06/02 02:55:09;;;;;;;9.70;2.60;;;;;;;10.85;100.00;102019.84;5069004;28;20500;-59
2023/06/02 02:57:37;;;;;;;9.05;2.72;;;;;;;10.93;100.00;102019.50;5068608;28;20522;-58
2023/06/02 03:00:09;;;;;;;14.25;2.50;;;;;;;11.04;100.00;102024.25;5071101;28;20049;-58
2023/06/02 03:02:37;;;;;;;11.05;2.55;;;;;;;10.91;100.00;102030.09;5069473;28;20048;-60
2023/06/02 03:05:13;;;;;;;9.77;2.55;;;;;;;10.86;100.00;102026.81;5071226;28;20045;-59
2023/06/02 03:07:44;;;;;;;;;;;;;;;10.93;100.00;102022.97;5071370;28;20048;-58
2023/06/02 03:10:12;;;;;;;11.70;2.85;;;;;;;10.95;100.00;102017.66;5072268;28;19920;-58
2023/06/02 03:12:40;;;;;;;10.07;2.72;;;;;;;10.94;100.00;102029.94;5073002;28;20052;-58
2023/06/02 03:15:11;;;;;;;10.90;2.33;;;;;;;10.96;100.00;102028.09;5073611;28;20131;-58
2023/06/02 03:17:41;;;;;;;10.32;2.20;;;;;;;10.70;100.00;102033.72;5073165;28;20045;-61
2023/06/02 03:20:14;;;;;;;9.18;2.67;;;;;;;10.71;100.00;102043.34;5072291;28;20079;-59
2023/06/02 03:22:43;;;;;;;11.65;2.55;;;;;;;10.70;100.00;102039.84;5073784;28;20174;-59
2023/06/02 03:25:14;;;;;;;9.27;2.80;;;;;;;10.70;100.00;102039.00;5073705;28;20072;-58
2023/06/02 03:27:42;;;;;;;10.75;2.40;;;;;;;10.64;100.00;102043.63;5071735;28;20052;-59
2023/06/02 03:30:11;;;;;;;12.45;2.58;;;;;;;10.51;100.00;102045.09;5054647;28;20060;-59
2023/06/02 03:32:40;;;;;;;11.88;2.40;;;;;;;10.50;100.00;102043.41;5072787;28;20403;-58
2023/06/02 03:35:09;;;;;;;13.20;2.60;;;;;;;10.63;100.00;102043.69;5075753;28;20483;-59
2023/06/02 03:37:39;;;;;;;13.10;2.70;;;;;;;10.60;100.00;102042.06;5075410;28;20052;-58
2023/06/02 03:40:09;;;;;;;13.43;2.70;;;;;;;10.71;100.00;102033.66;5073732;28;20091;-59
2023/06/02 03:42:37;;;;;;;13.57;2.97;;;;;;;10.62;100.00;102034.94;5071402;28;20044;-59
2023/06/02 03:45:07;;;;;;;11.70;2.40;;;;;;;10.49;100.00;102023.28;5072239;28;20406;-59
2023/06/02 03:47:35;;;;;;;12.57;2.28;;;;;;;10.60;100.00;102034.16;5072389;28;20430;-58
2023/06/02 03:50:03;;;;;;;12.82;2.38;;;;;;;10.68;100.00;102031.19;5071614;28;20106;-59
2023/06/02 03:52:31;;;;;;;9.70;2.00;;;;;;;10.69;100.00;102032.03;5072923;28;20127;-58
2023/06/02 03:55:01;;;;;;;9.32;2.25;;;;;;;10.72;100.00;102031.91;5075107;28;20491;-58
2023/06/02 03:57:29;;;;;;;12.73;2.67;;;;;;;10.71;100.00;102035.44;5075196;28;20591;-59
2023/06/02 03:59:57;;;;;;;10.90;2.42;;;;;;;10.70;100.00;102037.22;5072216;28;20124;-59
2023/06/02 04:02:26;;;;;;;13.10;2.70;;;;;;;10.60;100.00;102039.41;5071922;28;20044;-59
2023/06/02 04:04:55;;;;;;;13.27;2.22;;;;;;;10.69;100.00;102042.53;5071629;28;20539;-59
2023/06/02 04:07:24;;;;;;;9.02;2.13;;;;;;;10.73;100.00;102038.84;5071282;28;20040;-60
2023/06/02 04:09:52;;;;;;;12.27;2.92;;;;;;;10.62;100.00;102044.59;5071561;28;20102;-59
2023/06/02 04:12:21;;;;;;;11.95;2.30;;;;;;;10.61;100.00;102046.41;5069752;28;20060;-59
2023/06/02 04:14:50;;;;;;;11.00;2.17;;;;;;;10.77;100.00;102048.31;5071827;28;20049;-58
2023/06/02 04:17:18;;;;;;;11.10;2.20;;;;;;;10.52;100.00;102054.69;5072643;28;20487;-59
2023/06/02 04:19:46;;;;;;;11.88;2.28;;;;;;;10.55;100.00;102054.59;5074388;28;20055;-60
2023/06/02 04:22:14;;;;;;;12.00;2.42;;;;;;;10.55;100.00;102058.97;5074332;28;20476;-60
2023/06/02 04:24:44;;;;;;;12.10;2.42;;;;;;;10.49;100.00;102052.22;5074215;28;20510;-58
2023/06/02 04:27:12;;;;;;;10.32;2.42;;;;;;;10.57;100.00;102057.97;5069869;28;20052;-58
2023/06/02 04:29:42;;;;;;;12.07;2.88;;;;;;;10.56;100.00;102052.78;5072837;28;20053;-59
2023/06/02 04:32:10;;;;;;;11.70;2.70;;;;;;;10.62;100.00;102053.38;5053780;28;20048;-60
2023/06/02 04:34:38;;;;;;;12.98;2.80;;;;;;;10.60;100.00;102049.09;5070332;28;20040;-60
2023/06/02 04:37:07;;;;;;;13.52;2.75;;;;;;;10.50;100.00;102056.56;5073426;28;20053;-60
2023/06/02 04:39:38;;;;;;;12.52;2.33;;;;;;;10.51;100.00;102053.00;5071072;28;20200;-58
2023/06/02 04:42:07;;;;;;;11.10;2.58;;;;;;;10.41;100.00;102055.19;5069357;28;20053;-60
2023/06/02 04:44:35;;;;;;;12.50;2.58;;;;;;;10.38;100.00;102050.06;5071247;28;20045;-58
2023/06/02 04:47:08;;;;;;;17.80;2.80;;;;;;;10.54;100.00;102046.75;5072911;28;20048;-58
2023/06/02 04:49:37;;;;;;;12.07;2.67;;;;;;;10.60;100.00;102057.84;5073997;28;20094;-59
2023/06/02 04:52:06;;;;;;;8.73;2.38;;;;;;;10.62;100.00;102053.38;5070926;28;20049;-59
2023/06/02 04:54:34;;;;;;;11.57;2.33;;;;;;;10.73;100.00;102052.88;5071027;28;20508;-58
2023/06/02 04:57:05;;;;;;;9.10;2.05;;;;;;;10.75;100.00;102060.69;5069422;28;20048;-58
2023/06/02 04:59:34;;;;;;;8.40;2.38;;;;;;;10.73;100.00;102065.16;5070938;28;20045;-58
2023/06/02 05:02:02;;;;;;;11.93;2.40;;;;;;;10.74;100.00;102061.59;5073541;28;20583;-60
2023/06/02 05:04:32;;;;;;;10.25;2.72;;;;;;;10.60;100.00;102063.09;5069672;28;20040;-59
2023/06/02 05:07:03;;;;;;;11.63;2.58;;;;;;;10.54;100.00;102060.75;5071227;28;20547;-59
2023/06/02 05:09:31;;;;;;;12.45;2.50;;;;;;;10.67;100.00;102057.56;5073706;28;20053;-52
2023/06/02 05:12:00;;;;;;;10.05;2.10;;;;;;;10.68;100.00;102060.13;5069617;28;20049;-52
2023/06/02 05:14:28;;;;;;;10.07;2.42;;;;;;;10.70;100.00;102071.41;5069675;28;20056;-59
2023/06/02 05:16:58;;;;;;;14.40;2.50;;;;;;;10.73;100.00;102066.03;5070330;28;20049;-61
2023/06/02 05:19:26;;;;;;;13.50;2.33;;;;;;;10.72;100.00;102066.09;5070829;28;20040;-59
2023/06/02 05:21:56;;;;;;;13.98;2.40;;;;;;;10.74;100.00;102067.72;5071627;28;20047;-50
2023/06/02 05:24:27;;;;;;;10.02;2.20;;;;;;;10.82;100.00;102072.63;5069792;28;20044;-48
2023/06/02 05:26:55;;;;;;;11.60;2.42;;;;;;;10.83;100.00;102063.81;5068846;28;20036;-50
2023/06/02 05:29:23;;;;;;;13.02;2.95;;;;;;;10.79;100.00;102060.47;5069586;28;20064;-50
2023/06/02 05:31:51;;;;;;;10.95;2.28;;;;;;;10.80;100.00;102056.06;5070383;28;20074;-48
2023/06/02 05:34:20;;;;;;;11.70;2.63;;;;;;;10.85;100.00;102067.22;5069667;28;20045;-49
2023/06/02 05:36:48;;;;;;;11.73;2.60;;;;;;;10.99;100.00;102059.53;5069912;28;20147;-58
2023/06/02 05:39:17;;;;;;;13.18;2.58;;;;;;;10.94;100.00;102056.25;5069602;28;20056;-59
2023/06/02 05:41:46;;;;;;;19.25;2.85;;;;;;;11.03;100.00;102060.25;5072706;28;20143;-60
2023/06/02 05:44:14;;;;;;;15.65;2.65;;;;;;;11.13;100.00;102060.66;5069455;28;20045;-59
2023/06/02 05:46:42;;;;;;;11.27;2.38;;;;;;;11.24;100.00;102054.88;5071515;28;20051;-59
2023/06/02 05:49:10;;;;;;;11.20;2.55;;;;;;;11.27;100.00;102060.81;5072703;28;20576;-60
2023/06/02 05:51:41;;;;;;;11.07;2.45;;;;;;;11.27;100.00;102063.47;5072648;28;20570;-59
2023/06/02 05:54:11;;;;;;;11.77;2.88;;;;;;;11.23;100.00;102061.91;5072611;28;20491;-59
2023/06/02 05:56:40;;;;;;;10.63;2.20;;;;;;;11.31;100.00;102057.13;5072753;28;20044;-47
2023/06/02 05:59:09;;;;;;;11.20;2.30;;;;;;;11.35;100.00;102056.97;5071797;28;20394;-50
2023/06/02 06:01:40;;;;;;;10.07;2.70;;;;;;;11.35;100.00;102052.56;5069587;28;20855;-46
2023/06/02 06:04:08;;;;;;;10.48;2.20;;;;;;;11.48;100.00;102056.28;5068658;28;20068;-48
2023/06/02 06:06:36;;;;;;;13.23;2.50;;;;;;;11.53;100.00;102063.97;5050995;28;20032;-47
2023/06/02 06:09:05;;;;;;;12.95;2.45;;;;;;;11.52;100.00;102054.38;5072314;28;20105;-52
2023/06/02 06:11:34;;;;;;;10.57;2.08;;;;;;;11.56;100.00;102052.41;5072171;28;20045;-59
2023/06/02 06:14:07;;;;;;;11.93;2.17;;;;;;;11.44;100.00;102053.91;5072394;28;20052;-52
2023/06/02 06:16:38;;;;;;;9.32;2.50;;;;;;;11.44;100.00;102053.91;5070344;28;20703;-59
2023/06/02 06:19:07;;;;;;;13.57;2.35;;;;;;;11.55;100.00;102053.34;5069169;28;20063;-59
2023/06/02 06:21:36;;;;;;;13.40;2.35;;;;;;;11.55;100.00;102062.13;5069423;28;20068;-59
2023/06/02 06:24:06;;;;;;;11.95;2.30;;;;;;;11.65;100.00;102059.88;5069194;28;20098;-60
2023/06/02 06:26:34;;;;;;;12.10;2.10;;;;;;;11.57;100.00;102062.88;5068369;28;20040;-59
2023/06/02 06:29:04;;;;;;;12.43;2.67;;;;;;;11.72;100.00;102049.88;5051490;28;20438;-58
2023/06/02 06:31:33;;;;;;;7.80;2.35;;;;;;;11.76;100.00;102057.53;5068865;28;20058;-58
2023/06/02 06:34:02;;;;;;;13.45;3.20;;;;;;;11.86;100.00;102054.44;5069109;28;20048;-59
2023/06/02 06:36:30;;;;;;;17.30;2.30;;;;;;;11.97;100.00;102053.00;5071146;28;20051;-59
2023/06/02 06:38:58;;;;;;;8.85;2.03;;;;;;;11.77;100.00;102058.41;5069212;28;20061;-59
2023/06/02 06:41:27;;;;;;;9.57;2.33;;;;;;;11.77;100.00;102061.03;5069092;28;20044;-59
2023/06/02 06:43:57;;;;;;;14.48;2.70;;;;;;;11.94;100.00;102060.16;5055507;28;20076;-60
2023/06/02 06:46:26;;;;;;;13.05;2.78;;;;;;;11.98;100.00;102059.97;5072751;28;20047;-58
2023/06/02 06:48:54;;;;;;;13.40;2.53;;;;;;;12.05;100.00;102070.19;5073799;28;20047;-59
2023/06/02 06:51:23;;;;;;;11.77;2.50;;;;;;;12.04;100.00;102063.19;5074688;28;20084;-59
2023/06/02 06:53:51;;;;;;;9.90;2.03;;;;;;;12.27;100.00;102065.50;5072993;28;20499;-60
2023/06/02 06:56:20;;;;;;;17.42;2.45;;;;;;;12.26;100.00;102066.44;5072209;28;20494;-59
2023/06/02 06:58:48;;;;;;;12.70;2.70;;;;;;;12.35;100.00;102062.44;5075436;28;20106;-60
2023/06/02 07:01:16;;;;;;;11.30;2.45;;;;;;;12.30;100.00;102064.50;5076183;28;20369;-60
2023/06/02 07:03:45;;;;;;;12.40;2.85;;;;;;;12.09;100.00;102072.59;5076086;28;20048;-61
2023/06/02 07:06:14;;;;;;;12.45;2.20;;;;;;;12.15;100.00;102063.50;5075859;28;20391;-59
2023/06/02 07:08:42;;;;;;;12.80;2.20;;;;;;;12.09;100.00;102061.19;5073703;28;20044;-60
2023/06/02 07:11:10;;;;;;;9.43;1.95;;;;;;;12.13;100.00;102068.00;5072080;28;20541;-60
2023/06/02 07:13:41;;;;;;;10.57;1.90;;;;;;;12.14;100.00;102067.06;5072287;28;20361;-60
2023/06/02 07:16:10;;;;;;;13.02;2.53;;;;;;;12.04;100.00;102079.91;5072583;28;20055;-61
2023/06/02 07:18:38;;;;;;;9.85;2.28;;;;;;;12.17;100.00;102074.81;5055235;28;20109;-60
2023/06/02 07:21:08;;;;;;;9.13;2.20;;;;;;;12.17;100.00;102075.69;5072529;28;20049;-59
2023/06/02 07:23:36;;;;;;;9.52;2.15;;;;;;;12.27;100.00;102083.09;5072235;28;20123;-58
2023/06/02 07:26:04;;;;;;;13.82;2.60;;;;;;;12.38;100.00;102075.50;5071680;28;20043;-57
2023/06/02 07:28:33;;;;;;;9.50;2.08;;;;;;;12.53;100.00;102073.81;5053134;28;20056;-59
2023/06/02 07:31:07;;;;;;;9.75;2.85;;;;;;;12.56;100.00;102086.84;5055989;28;20052;-58
2023/06/02 07:33:38;;;;;;;11.15;2.15;;;;;;;12.67;100.00;102083.63;5075757;28;20063;-58
2023/06/02 07:36:07;;;;;;;9.82;2.20;;;;;;;12.75;100.00;102085.81;5054535;28;20037;-58
2023/06/02 07:38:36;;;;;;;10.60;2.33;;;;;;;12.73;100.00;102090.34;5072393;28;20059;-58
2023/06/02 07:41:04;;;;;;;13.43;2.63;;;;;;;12.65;100.00;102085.47;5071723;28;20057;-58
2023/06/02 07:43:32;;;;;;;7.32;2.30;;;;;;;12.79;100.00;102087.38;5071353;28;20442;-58
2023/06/02 07:46:00;;;;;;;13.23;2.60;;;;;;;12.78;100.00;102085.69;5073703;28;20047;-49
2023/06/02 07:48:31;;;;;;;12.77;2.40;;;;;;;12.87;100.00;102079.91;5075079;28;20048;-51
2023/06/02 07:50:59;;;;;;;11.20;2.30;;;;;;;12.96;100.00;102089.91;5074791;28;20091;-49
2023/06/02 07:53:29;;;;;;;10.48;2.50;;;;;;;13.00;100.00;102086.16;5071110;28;21061;-50
2023/06/02 07:55:57;;;;;;;16.98;2.65;;;;;;;13.17;100.00;102085.25;5071783;28;20056;-52
2023/06/02 07:58:25;;;;;;;16.95;2.65;;;;;;;13.17;100.00;102087.88;5071298;28;20106;-50
2023/06/02 08:00:53;;;;;;;11.35;2.25;;;;;;;13.24;100.00;102085.75;5072408;28;20055;-52
2023/06/02 08:03:22;;;;;;;10.07;2.00;;;;;;;13.39;100.00;102083.19;5071737;28;20094;-47
2023/06/02 08:05:50;;;;;;;11.73;2.92;;;;;;;13.13;100.00;102082.84;5071453;28;20534;-47
2023/06/02 08:08:18;;;;;;;12.25;2.65;;;;;;;13.26;100.00;102083.00;5071598;28;20098;-51
2023/06/02 08:10:48;;;;;;;12.00;2.10;;;;;;;13.33;100.00;102077.31;5053299;28;20044;-52
2023/06/02 08:13:16;;;;;;;11.32;3.10;;;;;;;13.50;100.00;102079.00;5070726;28;20043;-52
2023/06/02 08:15:44;;;;;;;9.85;2.20;;;;;;;13.53;100.00;102083.25;5072015;28;20049;-51
2023/06/02 08:18:23;;;;;;;9.00;2.38;;;;;;;13.56;100.00;102082.22;5071781;28;20082;-49
2023/06/02 08:20:52;;;;;;;10.60;2.38;;;;;;;13.47;100.00;102088.88;5071567;28;20040;-50
2023/06/02 08:23:20;;;;;;;9.10;2.28;;;;;;;13.72;100.00;102079.53;5071555;28;20407;-53
2023/06/02 08:25:50;;;;;;;11.35;2.15;;;;;;;13.83;100.00;102085.88;5071232;28;20071;-50
2023/06/02 08:28:24;;;;;;;10.85;2.30;;;;;;;13.92;100.00;102084.50;5055785;28;20578;-49
2023/06/02 08:30:58;;;;;;;11.80;2.45;;;;;;;13.96;100.00;102080.72;5071172;28;20110;-48
2023/06/02 08:33:27;;;;;;;14.30;2.58;;;;;;;14.00;100.00;102086.66;5070057;28;20044;-52
2023/06/02 08:35:55;;;;;;;11.73;2.92;;;;;;;13.96;99.80;102082.50;5070944;28;20036;-51
2023/06/02 08:38:25;;;;;;;11.25;3.25;;;;;;;14.02;98.73;102075.06;5070679;28;20069;-51
2023/06/02 08:40:55;;;;;;;11.93;2.65;;;;;;;14.15;99.33;102069.88;5070449;28;20044;-50
2023/06/02 08:43:24;;;;;;;11.63;2.45;;;;;;;14.28;100.00;102077.06;5073646;28;20044;-53
2023/06/02 08:45:57;;;;;;;8.82;2.58;;;;;;;14.35;97.60;102083.69;5071483;28;20047;-51
2023/06/02 08:48:25;;;;;;;10.40;2.53;;;;;;;14.48;96.66;102081.09;5072553;28;20078;-52
2023/06/02 08:50:56;;;;;;;9.15;2.22;;;;;;;14.47;98.39;102072.34;5073854;28;20048;-48
2023/06/02 08:53:25;;;;;;;9.88;2.03;;;;;;;14.51;96.26;102081.78;5073919;28;20123;-52
2023/06/02 08:55:55;;;;;;;12.43;2.95;;;;;;;14.58;96.83;102078.78;5070335;28;20047;-51
2023/06/02 08:58:23;;;;;;;10.18;2.20;;;;;;;14.69;96.15;102082.44;5071396;28;20044;-51
2023/06/02 09:00:51;;;;;;;9.43;2.30;;;;;;;14.67;95.86;102091.44;5072351;28;20052;-51
2023/06/02 09:03:19;;;;;;;12.43;2.88;;;;;;;14.75;97.60;102090.97;5069997;28;20046;-52
2023/06/02 09:06:22;;;;;;;9.48;2.65;;;;;;;14.81;95.99;102091.44;5069338;28;20052;-52
2023/06/02 09:08:57;;;;;;;9.98;2.50;;;;;;;14.81;96.50;102082.66;5070536;28;20040;-52
2023/06/02 09:11:28;;;;;;;10.98;2.55;;;;;;;14.95;97.15;102087.06;5051387;28;20063;-48
2023/06/02 09:13:57;;;;;;;11.52;2.40;;;;;;;15.01;95.31;102089.28;5072385;28;20190;-52
2023/06/02 09:16:37;;;;;;;11.77;2.70;;;;;;;15.26;91.88;102088.56;5073033;28;20048;-52
2023/06/02 09:19:08;;;;;;;9.90;2.65;;;;;;;15.17;94.72;102084.72;5070440;28;20044;-52
2023/06/02 09:21:37;;;;;;;8.73;2.67;;;;;;;15.00;95.08;102092.91;5070293;28;20064;-51
2023/06/02 09:24:06;;;;;;;10.70;3.00;;;;;;;15.00;93.77;102083.16;5070523;28;20553;-47
2023/06/02 09:26:38;;;;;;;14.00;3.40;;;;;;;15.11;94.67;102089.56;5069666;28;20044;-51
2023/06/02 09:29:09;;;;;;;10.70;3.30;;;;;;;15.06;93.70;102092.50;5070046;28;20059;-52
2023/06/02 09:31:45;;;;;;;13.55;3.63;;;;;;;15.40;94.33;102094.78;5070123;28;20048;-48
2023/06/02 09:34:13;;;;;;;11.95;2.83;;;;;;;15.41;91.38;102093.81;5069889;28;20055;-51
2023/06/02 09:36:41;;;;;;;14.05;3.15;;;;;;;15.58;92.65;102088.22;5067966;28;20047;-48
2023/06/02 09:39:10;;;;;;;10.77;2.83;;;;;;;15.54;91.69;102082.31;5069580;28;20123;-50
2023/06/02 09:41:41;;;;;;;9.02;2.80;;;;;;;15.75;91.14;102079.16;5056716;28;20071;-48
2023/06/02 09:44:14;;;;;;;8.98;2.90;;;;;;;15.70;90.98;102082.09;5063510;28;20090;-47
2023/06/02 09:46:45;;;;;;;11.23;2.63;;;;;;;15.78;90.91;102080.75;5071268;28;20059;-48
2023/06/02 09:49:14;;;;;;;10.15;3.00;;;;;;;15.96;90.78;102078.69;5070164;28;20563;-49
2023/06/02 09:51:45;;;;;;;14.73;2.88;;;;;;;16.01;89.81;102080.06;5069637;28;20045;-47
2023/06/02 09:54:13;;;;;;;10.63;2.90;;;;;;;16.06;88.46;102077.09;5072080;28;20403;-47
2023/06/02 09:56:43;;;;;;;12.35;3.45;;;;;;;16.27;89.44;102074.75;5068908;28;20537;-47
2023/06/02 09:59:11;;;;;;;10.48;2.78;;;;;;;16.37;91.09;102077.59;5069667;28;20052;-48
2023/06/02 10:01:41;;;;;;;13.73;3.50;;;;;;;16.13;89.80;102082.81;5069736;28;20110;-50
2023/06/02 10:04:11;;;;;;;11.40;2.80;;;;;;;16.28;87.98;102083.53;5050813;28;20048;-51
2023/06/02 10:06:53;;;;;;;10.52;2.90;;;;;;;16.29;89.52;102079.94;5072707;28;20037;-48
2023/06/02 10:09:41;;;;;;;9.82;2.88;;;;;;;16.55;87.67;102078.09;5072593;28;20084;-52
2023/06/02 10:12:27;;;;;;;16.20;2.97;;;;;;;16.63;88.01;102080.22;5072839;28;20044;-49
2023/06/02 10:15:16;;;;;;;11.80;3.35;;;;;;;16.75;87.09;102078.50;5069790;28;20115;-58
2023/06/02 10:17:56;;;;;;;11.30;3.28;;;;;;;16.80;85.90;102074.53;5051659;28;20060;-59
2023/06/02 10:20:28;;;;;;;10.73;3.05;;;;;;;16.70;86.45;102078.81;5069016;28;20083;-58
2023/06/02 10:23:15;;;;;;;11.23;2.88;;;;;;;16.62;87.05;102074.06;5069467;28;20062;-58
2023/06/02 10:26:09;;;;;;;8.77;2.97;;;;;;;16.79;88.64;102072.00;5069510;28;20072;-59
2023/06/02 10:28:40;;;;;;;10.90;3.45;;;;;;;16.76;86.37;102074.88;5051110;28;20033;-58
2023/06/02 10:31:09;;;;;;;14.00;3.60;;;;;;;16.75;88.46;102074.03;5071871;28;20136;-58
2023/06/02 10:33:46;;;;;;;11.77;3.45;;;;;;;16.98;86.59;102074.19;5071920;28;20028;-58
2023/06/02 10:36:17;;;;;;;11.27;3.40;;;;;;;17.00;85.54;102067.81;5068812;28;20055;-58
2023/06/02 10:38:46;;;;;;;14.88;4.07;;;;;;;17.09;85.89;102081.41;5069412;28;20036;-57
2023/06/02 10:41:16;;;;;;;16.63;3.85;;;;;;;16.90;87.17;102069.44;5071699;28;20083;-57
2023/06/02 10:44:14;;;;;;;11.57;3.35;;;;;;;17.27;84.31;102073.88;5069476;28;20066;-58
2023/06/02 10:46:44;;;;;;;11.05;3.47;;;;;;;17.14;85.78;102066.81;5069170;28;20059;-58
2023/06/02 10:49:51;;;;;;;14.65;3.65;;;;;;;17.13;84.88;102072.22;5050927;28;20055;-58
2023/06/02 10:52:23;;;;;;;13.98;3.55;;;;;;;17.17;85.21;102071.03;5071013;28;20388;-58
2023/06/02 10:55:24;;;;;;;14.35;3.58;;;;;;;17.38;84.94;102066.78;5069057;28;20037;-58
2023/06/02 10:57:52;;;;;;;11.35;3.70;;;;;;;17.31;84.27;102068.19;5070060;28;20053;-60
2023/06/02 11:00:45;;;;;;;10.98;3.60;;;;;;;17.36;83.49;102066.03;5072168;28;20036;-60
2023/06/02 11:03:31;;;;;;;10.23;3.50;;;;;;;17.42;85.25;102066.56;5072245;28;20052;-59
2023/06/02 11:06:19;;;;;;;14.50;3.60;;;;;;;17.55;83.13;102064.69;5072261;28;20053;-59
2023/06/02 11:08:51;;;;;;;12.18;3.83;;;;;;;17.47;83.50;102067.06;5072014;28;20043;-58
2023/06/02 11:11:38;;;;;;;;;;;;;;;17.55;83.30;102067.34;5072907;28;20052;-57
2023/06/02 11:14:06;;;;;;;16.08;4.00;;;;;;;17.31;84.44;102070.84;5054066;28;19920;-59
2023/06/02 11:16:34;;;;;;;10.50;3.45;;;;;;;17.65;83.70;102072.78;5071993;28;20051;-59
2023/06/02 11:19:04;;;;;;;11.60;3.42;;;;;;;17.91;83.35;102060.16;5069341;28;20052;-59
2023/06/02 11:21:33;;;;;;;12.30;3.70;;;;;;;18.22;81.59;102068.44;5068442;28;20048;-59
2023/06/02 11:24:01;;;;;;;12.65;3.67;;;;;;;18.53;81.26;102066.03;5051257;28;20098;-59
2023/06/02 11:26:29;;;;;;;13.25;3.42;;;;;;;18.46;79.45;102065.66;5070309;28;20502;-59